This is the latest recevied weather packets stored in our database for station/object WBGG. If no packets are shown the sender has not sent any weather packets the latest 10 day(s).
| Time | Temp. | Humidity | Pressure | Rain* | Wind** | Luminosity | Snow |
|---|---|---|---|---|---|---|---|
| 1777707581 | 25° C | 10% | - | - | - | - | - |
| 1777706385 | 25.56° C | 94% | 1006 hPa | - | - | - | - |
| 1777705800 | 25.56° C | 94% | 1006 hPa | - | - | - | - |
| 1777705183 | 27.78° C | 88% | 1007 hPa | - | - | - | - |
| 1777703981 | 30° C | 74% | 1007 hPa | - | - | - | - |
| 1777702207 | 31.67° C | 66% | 1007 hPa | - | - | - | - |
| 1777700383 | 31.67° C | 66% | 1008 hPa | - | - | - | - |
| 1777698601 | 32.78° C | 66% | 1009 hPa | - | - | - | - |
| 1777696781 | 31.67° C | 66% | 1009 hPa | - | - | - | - |
| 1777694999 | 31.67° C | 70% | 1010 hPa | - | - | - | - |
| 1777693181 | 30.56° C | 70% | 1010 hPa | - | - | - | - |
| 1777691398 | 30° C | 79% | 1011 hPa | - | - | - | - |
| 1777689580 | 30° C | 79% | 1011 hPa | - | - | - | - |
| 1777687806 | 28.89° C | 79% | 1011 hPa | - | - | - | - |
| 1777685981 | 28.89° C | 83% | 1010 hPa | - | - | - | - |
| 1777684200 | 27.78° C | 83% | 1010 hPa | - | - | - | - |
| 1777682380 | 25.56° C | 94% | 1010 hPa | - | - | - | - |
| 1777680599 | 25.56° C | 88% | 1010 hPa | - | - | - | - |
| 1777678780 | 25° C | 94% | 1009 hPa | - | - | - | - |
| 1777676998 | 23.89° C | 94% | 1009 hPa | - | - | - | - |
| 1777675180 | 23.89° C | 94% | 1009 hPa | - | - | - | - |
| 1777673398 | 23.89° C | 94% | 1008 hPa | - | - | - | - |
| 1777671580 | 23.89° C | 94% | 1008 hPa | - | - | - | - |
| 1777669806 | 23.89° C | 94% | 1008 hPa | - | - | - | - |
| 1777667983 | 23.89° C | 94% | 1008 hPa | - | - | - | - |
* Rain since midnight (hover to see other rain measurements)
** Current wind speed in m/s (hover to see current wind gust speed)